VT58B EGBB-EGSS
Flight info
| Callsign | VT58B |
|---|---|
| Flight time | 0h 31m |
| Altitude | 5000 |
| Route | DTY2Y DTY L608 OLNEY DCT BOMBO DCT |
| Aircraft | BE58/L-SDFGRY/C |
Departure
| Time | 2026-05-01 07:53 |
|---|---|
| Airport | Birmingham Airport (EGBB) |
Arrival
| Time | 2026-05-01 08:24 |
|---|---|
| Airport | London Stansted Airport (EGSS) |
| Time | Latitude | Longitude | Altitude | Speed | Heading |
|---|---|---|---|---|---|
| 2026-05-01 07:33 | 52.45083 | -1.74936 | 322 ft | 0 kts | 179° |
| 2026-05-01 07:49 | 52.45059 | -1.74840 | 323 ft | 13 kts | 110° |
| 2026-05-01 07:49 | 52.45064 | -1.74736 | 323 ft | 0 kts | 58° |
| 2026-05-01 07:50 | 52.45064 | -1.74735 | 324 ft | 0 kts | 291° |
| 2026-05-01 07:50 | 52.45091 | -1.74823 | 323 ft | 0 kts | 320° |
| 2026-05-01 07:50 | 52.45099 | -1.74834 | 323 ft | 7 kts | 320° |
| 2026-05-01 07:51 | 52.45180 | -1.74923 | 321 ft | 15 kts | 304° |
| 2026-05-01 07:51 | 52.45142 | -1.75087 | 321 ft | 15 kts | 238° |
| 2026-05-01 07:51 | 52.45215 | -1.75209 | 320 ft | 23 kts | 29° |
| 2026-05-01 07:52 | 52.45297 | -1.75026 | 320 ft | 0 kts | 58° |
| 2026-05-01 07:52 | 52.45297 | -1.75025 | 320 ft | 2 kts | 58° |
| 2026-05-01 07:52 | 52.45327 | -1.74948 | 320 ft | 14 kts | 59° |
| 2026-05-01 07:53 | 52.44881 | -1.74238 | 377 ft | 114 kts | 146° |
| 2026-05-01 07:53 | 52.44171 | -1.73452 | 847 ft | 128 kts | 146° |
| 2026-05-01 07:53 | 52.43415 | -1.72643 | 1358 ft | 130 kts | 147° |
| 2026-05-01 07:53 | 52.42650 | -1.71780 | 1795 ft | 139 kts | 148° |
| 2026-05-01 07:54 | 52.40709 | -1.69961 | 1830 ft | 172 kts | 167° |
| 2026-05-01 07:55 | 52.37280 | -1.68223 | 1874 ft | 170 kts | 154° |
| 2026-05-01 07:55 | 52.35409 | -1.66021 | 1871 ft | 168 kts | 126° |
| 2026-05-01 07:56 | 52.34618 | -1.60625 | 2394 ft | 148 kts | 107° |
| 2026-05-01 07:56 | 52.34174 | -1.57411 | 3001 ft | 146 kts | 119° |
| 2026-05-01 07:57 | 52.33683 | -1.55908 | 3303 ft | 148 kts | 122° |
| 2026-05-01 07:57 | 52.32744 | -1.52923 | 4088 ft | 149 kts | 121° |
| 2026-05-01 07:58 | 52.31798 | -1.49917 | 4763 ft | 148 kts | 121° |
| 2026-05-01 07:58 | 52.30786 | -1.46996 | 5415 ft | 148 kts | 124° |
| 2026-05-01 07:59 | 52.29746 | -1.44036 | 6000 ft | 156 kts | 124° |
| 2026-05-01 07:59 | 52.28598 | -1.40830 | 6022 ft | 170 kts | 124° |
| 2026-05-01 08:00 | 52.26207 | -1.34136 | 6012 ft | 172 kts | 124° |
| 2026-05-01 08:01 | 52.24377 | -1.29037 | 6021 ft | 175 kts | 124° |
| 2026-05-01 08:01 | 52.23765 | -1.27328 | 6010 ft | 174 kts | 124° |
| 2026-05-01 08:01 | 52.23154 | -1.25634 | 6011 ft | 173 kts | 124° |
| 2026-05-01 08:02 | 52.21937 | -1.22249 | 6010 ft | 171 kts | 124° |
| 2026-05-01 08:02 | 52.21331 | -1.20568 | 6010 ft | 173 kts | 124° |
| 2026-05-01 08:03 | 52.20107 | -1.17179 | 6013 ft | 173 kts | 124° |
| 2026-05-01 08:03 | 52.19498 | -1.15487 | 6003 ft | 173 kts | 124° |
| 2026-05-01 08:03 | 52.18272 | -1.12109 | 6017 ft | 174 kts | 125° |
| 2026-05-01 08:04 | 52.17588 | -1.08215 | 6013 ft | 183 kts | 106° |
| 2026-05-01 08:04 | 52.17028 | -1.04159 | 5995 ft | 183 kts | 107° |
| 2026-05-01 08:05 | 52.16476 | -1.00121 | 5991 ft | 183 kts | 107° |
| 2026-05-01 08:05 | 52.16199 | -0.98101 | 5990 ft | 182 kts | 107° |
| 2026-05-01 08:05 | 52.15928 | -0.96131 | 5991 ft | 182 kts | 107° |
| 2026-05-01 08:06 | 52.15371 | -0.92078 | 5987 ft | 180 kts | 107° |
| 2026-05-01 08:06 | 52.14822 | -0.88112 | 5986 ft | 181 kts | 107° |
| 2026-05-01 08:07 | 52.14273 | -0.84128 | 5986 ft | 180 kts | 107° |
| 2026-05-01 08:07 | 52.13700 | -0.80043 | 5992 ft | 189 kts | 107° |
| 2026-05-01 08:08 | 52.13414 | -0.77961 | 5995 ft | 188 kts | 107° |
| 2026-05-01 08:08 | 52.12815 | -0.73778 | 6000 ft | 190 kts | 111° |
| 2026-05-01 08:09 | 52.11493 | -0.70142 | 5996 ft | 188 kts | 126° |
| 2026-05-01 08:09 | 52.10801 | -0.68341 | 6001 ft | 188 kts | 126° |
| 2026-05-01 08:09 | 52.10102 | -0.66535 | 5986 ft | 187 kts | 126° |
| 2026-05-01 08:10 | 52.08705 | -0.62963 | 5988 ft | 186 kts | 126° |
| 2026-05-01 08:10 | 52.07322 | -0.59418 | 5991 ft | 187 kts | 126° |
| 2026-05-01 08:11 | 52.05928 | -0.55847 | 5989 ft | 187 kts | 126° |
| 2026-05-01 08:11 | 52.04522 | -0.52264 | 5988 ft | 188 kts | 126° |
| 2026-05-01 08:12 | 52.03116 | -0.48678 | 5982 ft | 187 kts | 126° |
| 2026-05-01 08:12 | 52.02414 | -0.46890 | 5987 ft | 187 kts | 126° |
| 2026-05-01 08:12 | 52.01007 | -0.43311 | 5988 ft | 189 kts | 126° |
| 2026-05-01 08:13 | 52.00301 | -0.41513 | 6006 ft | 188 kts | 126° |
| 2026-05-01 08:13 | 51.99617 | -0.39716 | 6009 ft | 189 kts | 121° |
| 2026-05-01 08:13 | 51.98872 | -0.35585 | 6009 ft | 190 kts | 110° |
| 2026-05-01 08:14 | 51.98512 | -0.33550 | 6015 ft | 191 kts | 109° |
| 2026-05-01 08:14 | 51.97906 | -0.31695 | 6007 ft | 186 kts | 136° |
| 2026-05-01 08:14 | 51.96967 | -0.30256 | 6010 ft | 184 kts | 141° |
| 2026-05-01 08:14 | 51.96019 | -0.28854 | 6014 ft | 184 kts | 141° |
| 2026-05-01 08:15 | 51.95070 | -0.27458 | 6017 ft | 184 kts | 141° |
| 2026-05-01 08:15 | 51.93169 | -0.24672 | 6009 ft | 184 kts | 141° |
| 2026-05-01 08:15 | 51.92220 | -0.23286 | 6010 ft | 184 kts | 141° |
| 2026-05-01 08:16 | 51.91274 | -0.21902 | 6011 ft | 184 kts | 141° |
| 2026-05-01 08:16 | 51.90332 | -0.20525 | 6011 ft | 183 kts | 141° |
| 2026-05-01 08:16 | 51.89376 | -0.19131 | 5823 ft | 190 kts | 141° |
| 2026-05-01 08:16 | 51.88362 | -0.17671 | 5511 ft | 199 kts | 141° |
| 2026-05-01 08:17 | 51.87328 | -0.16188 | 5206 ft | 199 kts | 141° |
| 2026-05-01 08:17 | 51.86295 | -0.14707 | 5008 ft | 196 kts | 141° |
| 2026-05-01 08:17 | 51.85302 | -0.13283 | 5002 ft | 185 kts | 141° |
| 2026-05-01 08:17 | 51.84345 | -0.11925 | 5005 ft | 181 kts | 141° |
| 2026-05-01 08:18 | 51.83394 | -0.10576 | 4996 ft | 180 kts | 141° |
| 2026-05-01 08:18 | 51.81524 | -0.07942 | 5037 ft | 179 kts | 141° |
| 2026-05-01 08:19 | 51.79549 | -0.05193 | 4546 ft | 191 kts | 142° |
| 2026-05-01 08:19 | 51.78570 | -0.03726 | 4289 ft | 194 kts | 132° |
| 2026-05-01 08:19 | 51.77830 | -0.01906 | 4053 ft | 193 kts | 123° |
| 2026-05-01 08:19 | 51.77197 | 0.00011 | 3803 ft | 195 kts | 116° |
| 2026-05-01 08:20 | 51.76746 | 0.02072 | 3546 ft | 194 kts | 111° |
| 2026-05-01 08:20 | 51.76325 | 0.04156 | 3297 ft | 195 kts | 111° |
| 2026-05-01 08:20 | 51.76079 | 0.06284 | 3149 ft | 193 kts | 92° |
| 2026-05-01 08:20 | 51.76481 | 0.08372 | 2834 ft | 203 kts | 59° |
| 2026-05-01 08:21 | 51.77543 | 0.09815 | 2709 ft | 199 kts | 28° |
| 2026-05-01 08:21 | 51.78819 | 0.10669 | 2461 ft | 196 kts | 24° |
| 2026-05-01 08:21 | 51.80066 | 0.11528 | 2159 ft | 195 kts | 26° |
| 2026-05-01 08:21 | 51.81241 | 0.12510 | 2036 ft | 182 kts | 38° |
| 2026-05-01 08:22 | 51.82149 | 0.13825 | 2037 ft | 169 kts | 46° |
| 2026-05-01 08:22 | 51.83019 | 0.15109 | 1779 ft | 168 kts | 46° |
| 2026-05-01 08:22 | 51.83827 | 0.16407 | 1495 ft | 160 kts | 48° |
| 2026-05-01 08:22 | 51.84613 | 0.17606 | 1229 ft | 150 kts | 47° |
| 2026-05-01 08:23 | 51.85358 | 0.18721 | 1019 ft | 145 kts | 47° |
| 2026-05-01 08:23 | 51.86062 | 0.19804 | 807 ft | 132 kts | 49° |
| 2026-05-01 08:23 | 51.86707 | 0.20767 | 625 ft | 121 kts | 47° |
| 2026-05-01 08:23 | 51.87279 | 0.21628 | 482 ft | 101 kts | 48° |
| 2026-05-01 08:24 | 51.87764 | 0.22364 | 348 ft | 92 kts | 51° |
| 2026-05-01 08:24 | 51.88147 | 0.22951 | 328 ft | 60 kts | 41° |
| 2026-05-01 08:24 | 51.88342 | 0.23170 | 328 ft | 18 kts | 318° |
| 2026-05-01 08:24 | 51.88401 | 0.22944 | 328 ft | 11 kts | 241° |
| 2026-05-01 08:25 | 51.88305 | 0.22842 | 325 ft | 0 kts | 199° |
| 2026-05-01 08:25 | 51.88314 | 0.22804 | 327 ft | 0 kts | 231° |
| 2026-05-01 08:25 | 51.88302 | 0.22782 | 327 ft | 7 kts | 265° |
| 2026-05-01 08:25 | 51.88345 | 0.22705 | 330 ft | 3 kts | 313° |
| 2026-05-01 08:26 | 51.88349 | 0.22698 | 330 ft | 0 kts | 313° |